Terminal Aerodrome Forecast
Issued by NWS Mt. Holly, NJ

Home | Current Version | Previous Version | Text Only | Print | Product List | Glossary On
Versions: 1 2 3 4 5 6 7 8 9 10 11 12
000
FTUS41 KPHI 260520
TAFILG
TAF
KILG 260520Z 2606/2706 29004KT P6SM OVC150
     FM261200 02008KT P6SM BKN150
     FM261800 35008KT P6SM SCT050 BKN250
     FM262200 32006KT P6SM FEW050 SCT250=

USA.gov is the U.S. government's official web portal to all federal, state and local government web resources and services.